Time;durP1;ratioP1;P1;durP2;ratioP2;P2;SDS_P1;SDS_P2;PMS_P1;PMS_P2;Temp;Humidity;BMP_temperature;BMP_pressure;BME280_temperature;BME280_humidity;BME280_pressure;Samples;Min_cycle;Max_cycle;Signal;HPM_P1;HPM_P2
2021/03/27 00:05:42;;;;;;;81.05;37.30;;;;;;;3.82;100.00;99465.99;4149958;85;28588;-76
2021/03/27 00:11:59;;;;;;;86.80;38.78;;;;;;;3.45;100.00;99472.35;4155997;84;28589;-79
2021/03/27 00:18:24;;;;;;;89.28;39.85;;;;;;;3.68;100.00;99462.25;4165965;85;28573;-77
2021/03/27 00:24:58;;;;;;;85.03;37.80;;;;;;;3.77;100.00;99460.36;4141035;85;28659;-79
2021/03/27 00:31:14;;;;;;;81.32;36.17;;;;;;;3.57;100.00;99465.31;4141249;85;28655;-77
2021/03/27 00:37:19;;;;;;;;;;;;;;;3.44;100.00;99463.21;4161939;84;28577;-78
2021/03/27 00:43:33;;;;;;;80.30;35.78;;;;;;;3.33;100.00;99459.94;4196628;84;20329;-77
2021/03/27 00:49:45;;;;;;;79.90;35.35;;;;;;;3.22;100.00;99464.31;4214455;84;28577;-78
2021/03/27 00:55:53;;;;;;;81.42;37.05;;;;;;;3.42;100.00;99462.05;4175347;85;28547;-78
2021/03/27 01:02:00;;;;;;;79.53;38.38;;;;;;;3.29;100.00;99454.66;4171706;84;28656;-77
2021/03/27 01:08:24;;;;;;;82.10;37.97;;;;;;;3.18;100.00;99451.05;4217866;83;28612;-77
2021/03/27 01:14:52;;;;;;;85.42;37.95;;;;;;;3.16;100.00;99437.09;4222910;83;28570;-78
2021/03/27 01:21:03;;;;;;;78.78;34.43;;;;;;;3.15;100.00;99435.43;4160059;84;28615;-78
2021/03/27 01:27:23;;;;;;;70.42;34.48;;;;;;;3.04;100.00;99441.97;4142497;85;28582;-78
2021/03/27 01:33:42;;;;;;;77.95;34.08;;;;;;;2.99;100.00;99433.67;4184439;84;28639;-78
2021/03/27 01:40:01;;;;;;;77.70;36.98;;;;;;;3.11;100.00;99431.48;4213762;84;28568;-80
2021/03/27 01:46:30;;;;;;;80.50;36.48;;;;;;;3.04;100.00;99420.20;4245817;83;28550;-79
2021/03/27 01:53:08;;;;;;;83.72;37.90;;;;;;;2.71;100.00;99424.30;4248330;83;28616;-78
2021/03/27 01:59:25;;;;;;;83.22;37.70;;;;;;;2.73;100.00;99418.83;4181405;84;28549;-80
2021/03/27 02:05:35;;;;;;;82.20;36.10;;;;;;;2.78;100.00;99412.01;4217780;83;28667;-80
2021/03/27 02:12:01;;;;;;;85.75;36.05;;;;;;;2.65;100.00;99416.52;4238685;83;28603;-79
2021/03/27 02:18:08;;;;;;;69.70;34.33;;;;;;;2.58;100.00;99412.88;4206854;83;28565;-80
2021/03/27 02:24:50;;;;;;;80.22;35.38;;;;;;;2.55;100.00;99407.08;4238957;83;28586;-76
2021/03/27 02:31:14;;;;;;;83.10;35.43;;;;;;;2.66;100.00;99409.40;4206523;84;28624;-77
2021/03/27 02:37:33;;;;;;;79.42;35.45;;;;;;;2.41;100.00;99410.77;4215954;84;28592;-76
2021/03/27 02:43:46;;;;;;;77.32;34.88;;;;;;;2.26;100.00;99410.62;4122081;85;28581;-77
2021/03/27 02:50:06;;;;;;;72.55;33.00;;;;;;;2.29;100.00;99397.52;4184127;84;28676;-76
2021/03/27 02:56:28;;;;;;;70.60;32.67;;;;;;;2.41;100.00;99398.82;4190903;84;29012;-78
2021/03/27 03:02:48;;;;;;;80.97;35.95;;;;;;;2.45;100.00;99394.84;4294929;82;28596;-78
2021/03/27 03:09:26;;;;;;;81.78;36.88;;;;;;;2.31;100.00;99393.70;4293660;82;28640;-78
2021/03/27 03:15:58;;;;;;;73.40;32.95;;;;;;;2.14;100.00;99400.02;4307723;82;28542;-78
2021/03/27 03:22:23;;;;;;;78.25;34.98;;;;;;;2.01;100.00;99396.06;4291446;82;28603;-78
2021/03/27 03:28:45;;;;;;;78.72;34.67;;;;;;;2.04;100.00;99387.76;4295954;82;28569;-77
2021/03/27 03:35:01;;;;;;;80.47;35.50;;;;;;;2.05;100.00;99384.63;4306748;81;28616;-77
2021/03/27 03:41:15;;;;;;;;;;;;;;;2.08;100.00;99373.67;4286026;82;28548;-78
2021/03/27 03:47:53;;;;;;;78.62;34.58;;;;;;;1.89;100.00;99371.69;4298603;82;20173;-78
2021/03/27 03:54:10;;;;;;;73.02;33.70;;;;;;;1.82;100.00;99369.36;4294342;82;28573;-77
2021/03/27 04:00:36;;;;;;;77.12;34.35;;;;;;;1.80;100.00;99366.05;4289497;82;28562;-78
2021/03/27 04:06:41;;;;;;;88.37;36.08;;;;;;;1.68;100.00;99358.95;4318128;82;28572;-79
2021/03/27 04:13:00;;;;;;;94.45;39.38;;;;;;;1.93;100.00;99355.80;4227938;83;28654;-78
2021/03/27 04:19:19;;;;;;;107.20;45.03;;;;;;;2.08;100.00;99344.01;4189382;84;28549;-78
2021/03/27 04:25:38;;;;;;;95.35;42.60;;;;;;;2.30;100.00;99348.76;4188595;85;28545;-79
2021/03/27 04:32:15;;;;;;;90.70;40.05;;;;;;;2.32;100.00;99348.92;4320256;82;28554;-78
2021/03/27 04:38:50;;;;;;;103.22;44.35;;;;;;;2.29;100.00;99360.37;4318187;82;28594;-77
2021/03/27 04:45:12;;;;;;;103.43;45.30;;;;;;;2.31;100.00;99359.70;4316882;82;28652;-79
2021/03/27 04:51:54;;;;;;;111.52;46.90;;;;;;;2.45;100.00;99352.38;4329181;82;28646;-79
2021/03/27 04:58:26;;;;;;;110.12;47.17;;;;;;;2.65;100.00;99350.63;4341182;82;28563;-78
2021/03/27 05:04:59;;;;;;;121.50;50.98;;;;;;;2.74;100.00;99350.93;4342376;82;28582;-78
2021/03/27 05:11:24;;;;;;;107.03;48.70;;;;;;;2.86;100.00;99355.38;4324385;82;28562;-76
2021/03/27 05:17:47;;;;;;;99.25;44.18;;;;;;;2.85;100.00;99359.03;4315222;82;28597;-76
2021/03/27 05:24:04;;;;;;;106.35;44.98;;;;;;;2.97;100.00;99362.14;4307434;82;28550;-76
2021/03/27 05:30:30;;;;;;;103.72;44.65;;;;;;;3.17;100.00;99347.91;4304896;82;28550;-76
2021/03/27 05:36:41;;;;;;;115.15;47.67;;;;;;;3.39;100.00;99349.95;4306022;82;28597;-75
2021/03/27 05:43:12;;;;;;;97.95;44.38;;;;;;;3.59;100.00;99357.78;4317611;81;28582;-76
2021/03/27 05:49:48;;;;;;;94.58;43.08;;;;;;;3.75;100.00;99359.98;4333800;81;28551;-77
2021/03/27 05:56:28;;;;;;;107.20;46.98;;;;;;;3.89;100.00;99355.71;4314571;81;28584;-78
2021/03/27 06:03:07;;;;;;;97.80;41.30;;;;;;;4.04;100.00;99353.09;4312740;81;28624;-79
2021/03/27 06:09:45;;;;;;;84.45;37.65;;;;;;;4.32;100.00;99346.64;4317878;81;28628;-79
2021/03/27 06:16:33;;;;;;;96.37;42.90;;;;;;;4.84;100.00;99345.87;4299959;81;28546;-80
2021/03/27 06:22:47;;;;;;;94.22;41.08;;;;;;;5.15;100.00;99346.14;4223410;81;28685;-82
2021/03/27 06:29:13;;;;;;;92.57;41.33;;;;;;;5.44;100.00;99341.23;4309370;82;28570;-81
2021/03/27 06:35:29;;;;;;;88.85;40.45;;;;;;;5.97;100.00;99338.72;4322365;81;28558;-81
2021/03/27 06:42:12;;;;;;;86.85;38.85;;;;;;;6.13;100.00;99336.30;4353685;81;28634;-81
2021/03/27 06:48:36;;;;;;;85.83;38.48;;;;;;;6.26;100.00;99334.23;4298928;82;28591;-80
2021/03/27 06:55:05;;;;;;;73.60;36.25;;;;;;;6.64;100.00;99324.16;4326888;82;44424;-80
2021/03/27 07:01:35;;;;;;;76.02;34.73;;;;;;;6.99;100.00;99328.12;4306965;82;28540;-80
2021/03/27 07:07:58;;;;;;;77.90;35.88;;;;;;;7.11;100.00;99323.83;4246006;82;28588;-79
2021/03/27 07:14:37;;;;;;;82.33;38.90;;;;;;;7.19;100.00;99328.70;4312262;81;28619;-80
2021/03/27 07:20:58;;;;;;;95.60;43.25;;;;;;;7.36;100.00;99331.29;4270125;82;28650;-81
2021/03/27 07:27:39;;;;;;;84.62;38.02;;;;;;;7.51;100.00;99326.29;4263363;82;28638;-75
2021/03/27 07:34:13;;;;;;;91.47;39.70;;;;;;;7.69;100.00;99327.02;4155123;84;28654;-77
2021/03/27 07:40:36;;;;;;;82.60;38.83;;;;;;;7.88;100.00;99328.05;4159771;83;28584;-78
2021/03/27 07:47:19;;;;;;;82.95;36.60;;;;;;;8.14;100.00;99319.70;4145882;85;28600;-77
2021/03/27 07:54:08;;;;;;;75.42;36.50;;;;;;;8.48;100.00;99312.91;4226933;83;28627;-79
2021/03/27 08:00:50;;;;;;;77.15;35.40;;;;;;;8.79;100.00;99298.82;4207860;83;28567;-79
2021/03/27 08:07:00;;;;;;;78.60;36.42;;;;;;;9.04;100.00;99308.80;4227612;83;28586;-79
2021/03/27 08:13:32;;;;;;;70.28;32.85;;;;;;;9.37;100.00;99304.29;4188811;83;28569;-79
2021/03/27 08:19:54;;;;;;;57.95;28.05;;;;;;;9.75;100.00;99291.83;4185165;84;28540;-78
2021/03/27 08:26:22;;;;;;;25.00;12.43;;;;;;;10.13;100.00;99288.19;4223188;83;28548;-80
2021/03/27 08:32:51;;;;;;;20.97;11.00;;;;;;;10.88;100.00;99280.95;4573475;76;85460;-79
2021/03/27 08:39:26;;;;;;;23.47;10.10;;;;;;;11.22;100.00;99281.02;4496184;78;28570;-80
2021/03/27 08:46:19;;;;;;;19.20;10.18;;;;;;;11.78;100.00;99276.20;4474264;78;28590;-79
2021/03/27 08:52:36;;;;;;;21.27;10.03;;;;;;;12.13;100.00;99270.53;4494577;78;28633;-86
2021/03/27 08:58:47;;;;;;;21.95;10.10;;;;;;;12.58;100.00;99266.91;4508538;77;28623;-83
2021/03/27 09:05:07;;;;;;;18.50;10.00;;;;;;;12.94;86.63;99267.08;4488230;78;28630;-80
2021/03/27 09:11:24;;;;;;;16.23;9.45;;;;;;;13.26;87.89;99261.69;4488583;78;29099;-78
2021/03/27 09:17:57;;;;;;;17.52;9.00;;;;;;;13.74;89.56;99260.07;4388635;80;28632;-85
2021/03/27 09:24:14;;;;;;;17.98;9.38;;;;;;;13.92;82.25;99257.11;4355073;80;28662;-83
2021/03/27 09:30:37;;;;;;;17.42;9.90;;;;;;;14.17;80.35;99248.27;4347783;80;28573;-82
2021/03/27 09:36:50;;;;;;;14.28;7.78;;;;;;;14.44;70.10;99238.87;4380230;80;28627;-79
2021/03/27 09:43:04;;;;;;;14.23;7.42;;;;;;;14.65;67.71;99236.41;4323385;80;28587;-81
2021/03/27 09:49:57;;;;;;;15.43;6.80;;;;;;;14.91;66.66;99228.06;4351008;81;28637;-81
2021/03/27 09:56:10;;;;;;;13.13;6.28;;;;;;;15.23;54.80;99228.35;4342810;80;28657;-81
2021/03/27 10:02:41;;;;;;;10.98;5.92;;;;;;;15.41;59.53;99215.78;4352603;81;28559;-82
2021/03/27 10:09:09;;;;;;;13.48;6.47;;;;;;;15.52;53.48;99228.05;4321076;80;28591;-81
2021/03/27 10:15:49;;;;;;;13.15;6.55;;;;;;;15.89;54.29;99220.43;4461031;78;87088;-89
2021/03/27 10:22:14;;;;;;;13.65;6.62;;;;;;;16.07;52.46;99217.05;4399213;80;28642;-82
2021/03/27 10:28:28;;;;;;;10.65;6.22;;;;;;;16.15;54.28;99213.84;4427295;79;28576;-88
2021/03/27 10:34:44;;;;;;;10.20;6.15;;;;;;;16.29;47.81;99212.80;4546899;76;57994;-88
2021/03/27 10:40:54;;;;;;;9.05;5.90;;;;;;;16.46;50.07;99218.04;4444240;79;28604;-85
2021/03/27 10:47:09;;;;;;;11.90;6.42;;;;;;;16.64;47.15;99221.34;4434419;79;28573;-89
2021/03/27 10:53:56;;;;;;;9.08;5.55;;;;;;;16.62;45.79;99212.64;4311730;81;28611;-92
2021/03/27 11:00:53;;;;;;;10.15;5.55;;;;;;;16.82;47.12;99214.62;4230823;82;28691;-89
2021/03/27 11:07:40;;;;;;;9.45;5.42;;;;;;;16.76;45.48;99216.47;4319405;81;28597;-89
2021/03/27 11:14:04;;;;;;;7.75;5.08;;;;;;;16.99;45.58;99207.02;4315924;81;28554;-89
2021/03/27 11:20:58;;;;;;;9.55;5.70;;;;;;;17.30;47.13;99204.09;4294783;82;28642;-89
2021/03/27 11:27:55;;;;;;;8.98;5.47;;;;;;;17.51;43.84;99211.14;4265378;82;28594;-90
2021/03/27 11:34:34;;;;;;;6.78;4.28;;;;;;;17.81;43.92;99210.84;4293234;80;28570;-90
2021/03/27 11:41:00;;;;;;;10.70;6.37;;;;;;;18.16;42.35;99213.77;4270254;82;28550;-90
2021/03/27 11:47:28;;;;;;;10.53;5.30;;;;;;;18.56;40.76;99202.98;4310162;81;28578;-90
2021/03/27 11:53:56;;;;;;;10.58;5.97;;;;;;;18.59;38.59;99202.44;4263651;82;28647;-87
2021/03/27 12:00:50;;;;;;;8.25;5.28;;;;;;;18.78;38.83;99205.31;4255398;82;28586;-90
2021/03/27 12:07:32;;;;;;;8.03;5.42;;;;;;;18.99;38.07;99195.65;4264927;82;28621;-89
2021/03/27 12:13:43;;;;;;;9.83;5.75;;;;;;;19.04;39.21;99194.83;4318377;81;28548;-86
2021/03/27 12:20:26;;;;;;;8.60;5.83;;;;;;;18.83;37.51;99200.39;4325643;81;28608;-85
2021/03/27 12:27:04;;;;;;;11.10;6.43;;;;;;;18.83;37.02;99205.01;4336879;80;33896;-87
2021/03/27 12:33:15;;;;;;;10.63;5.70;;;;;;;18.72;37.23;99196.10;4334878;81;28622;-85
2021/03/27 12:39:49;;;;;;;9.48;5.53;;;;;;;18.77;37.74;99213.22;4305536;81;28538;-85
2021/03/27 12:46:18;;;;;;;8.23;5.40;;;;;;;18.75;37.09;99207.25;4263377;82;28635;-87
2021/03/27 12:53:07;;;;;;;9.08;5.53;;;;;;;18.62;37.83;99218.73;4339719;81;28567;-87
2021/03/27 12:59:17;;;;;;;8.48;5.90;;;;;;;18.44;38.28;99223.75;4309744;82;28566;-86
2021/03/27 13:05:43;;;;;;;8.68;5.97;;;;;;;18.34;38.09;99240.12;4284648;82;28606;-87
2021/03/27 13:12:06;;;;;;;11.78;5.00;;;;;;;18.36;38.75;99249.61;4261042;82;28601;-88
2021/03/27 13:18:37;;;;;;;12.45;6.20;;;;;;;18.08;34.05;99255.14;4340758;80;28590;-88
2021/03/27 13:25:13;;;;;;;9.28;5.33;;;;;;;18.05;34.73;99263.30;4241855;82;28553;-88
2021/03/27 13:31:19;;;;;;;11.73;6.17;;;;;;;18.12;35.22;99260.32;4336632;81;28635;-88
2021/03/27 13:37:30;;;;;;;9.68;6.12;;;;;;;18.26;35.42;99270.05;4335072;81;28556;-88
2021/03/27 13:43:38;;;;;;;11.83;6.55;;;;;;;18.13;35.13;99268.75;4295150;81;28550;-89
2021/03/27 13:49:52;;;;;;;9.08;5.83;;;;;;;18.28;35.24;99262.98;4425332;79;28638;-88
2021/03/27 13:56:03;;;;;;;13.15;6.37;;;;;;;18.28;36.18;99269.79;4313552;81;28600;-87
2021/03/27 14:02:39;;;;;;;13.18;6.37;;;;;;;17.90;37.04;99279.07;4307350;81;28618;-85
2021/03/27 14:09:16;;;;;;;15.05;7.80;;;;;;;17.75;38.21;99303.02;4273868;81;28646;-85
2021/03/27 14:15:35;;;;;;;16.05;7.75;;;;;;;17.44;39.71;99292.13;4242779;83;28606;-82
2021/03/27 14:22:20;;;;;;;13.72;7.45;;;;;;;17.08;41.38;99301.59;4311428;82;28617;-84
2021/03/27 14:28:48;;;;;;;16.32;8.88;;;;;;;17.25;41.81;99305.43;4316656;81;28666;-83
2021/03/27 14:34:59;;;;;;;14.73;8.10;;;;;;;17.19;42.77;99310.59;4130779;86;28598;-84
2021/03/27 14:41:28;;;;;;;17.37;8.25;;;;;;;17.14;43.93;99315.48;4192622;85;28584;-85
2021/03/27 14:47:55;;;;;;;14.80;8.20;;;;;;;16.93;43.64;99323.53;4260970;83;28644;-79
2021/03/27 14:54:03;;;;;;;14.00;7.70;;;;;;;17.08;44.03;99321.97;4302015;83;28667;-83
2021/03/27 15:00:38;;;;;;;15.25;7.72;;;;;;;16.86;45.03;99328.39;4226503;84;28628;-84
2021/03/27 15:07:03;;;;;;;14.87;8.38;;;;;;;16.48;46.58;99335.27;4232953;83;28618;-84
2021/03/27 15:13:28;;;;;;;16.73;8.03;;;;;;;16.07;48.48;99339.88;4296608;81;28590;-85
2021/03/27 15:28:38;;;;;;;;;;;;;;;;;;;;;
2021/03/27 16:07:44;;;;;;;17.27;10.90;;;;;;;14.06;72.47;99483.84;4125423;82;28621;-83
2021/03/27 16:14:08;;;;;;;16.00;9.15;;;;;;;13.30;78.91;99520.73;4114582;86;28611;-82
2021/03/27 16:20:50;;;;;;;12.23;7.97;;;;;;;13.09;82.99;99540.53;4084854;85;28602;-83
2021/03/27 16:27:18;;;;;;;14.90;8.35;;;;;;;12.79;86.09;99559.51;4070070;87;28679;-83
2021/03/27 16:33:26;;;;;;;10.30;4.42;;;;;;;12.58;87.92;99581.93;4102801;86;28592;-83
2021/03/27 16:39:54;;;;;;;6.97;3.60;;;;;;;12.19;88.37;99602.50;4134668;85;28571;-84
2021/03/27 16:46:10;;;;;;;5.55;2.80;;;;;;;11.92;86.29;99634.33;4134096;86;28590;-86
2021/03/27 16:52:44;;;;;;;3.98;2.00;;;;;;;11.97;85.60;99654.67;4100400;86;28598;-86
2021/03/27 16:59:07;;;;;;;4.25;2.08;;;;;;;11.51;85.96;99667.61;4117007;85;28628;-90
2021/03/27 17:05:49;;;;;;;5.22;2.55;;;;;;;11.34;90.73;99673.55;4599540;76;85660;-86
2021/03/27 17:12:33;;;;;;;4.25;2.47;;;;;;;11.00;92.49;99679.19;4511131;78;28599;-87
2021/03/27 17:19:09;;;;;;;5.10;2.37;;;;;;;11.13;91.00;99690.38;4467952;78;28614;-84
2021/03/27 17:25:23;;;;;;;5.50;2.77;;;;;;;10.84;98.82;99698.02;4518575;78;28603;-85
2021/03/27 17:31:54;;;;;;;5.95;2.87;;;;;;;10.72;100.00;99710.52;4495600;78;28550;-83
2021/03/27 17:38:26;;;;;;;4.35;2.50;;;;;;;10.67;100.00;99720.57;4494702;78;28541;-86
2021/03/27 17:45:10;;;;;;;7.55;3.75;;;;;;;10.56;100.00;99724.75;4500181;78;28535;-81
2021/03/27 17:51:31;;;;;;;7.53;3.58;;;;;;;10.69;100.00;99735.97;4499205;78;28649;-85
2021/03/27 17:57:47;;;;;;;7.03;3.35;;;;;;;10.73;100.00;99742.59;4527225;77;28620;-89
2021/03/27 18:03:59;;;;;;;7.85;4.00;;;;;;;10.69;100.00;99739.19;4500134;78;28575;-84
2021/03/27 18:10:07;;;;;;;11.70;5.40;;;;;;;10.56;100.00;99733.34;4503008;78;28584;-88
2021/03/27 18:16:18;;;;;;;15.23;6.72;;;;;;;10.49;100.00;99731.20;4499724;78;28576;-87
2021/03/27 18:22:59;;;;;;;15.93;7.50;;;;;;;10.52;100.00;99740.20;4443049;78;28620;-78
2021/03/27 18:29:29;;;;;;;16.97;8.43;;;;;;;10.39;100.00;99743.20;4483154;79;28561;-78
2021/03/27 18:35:40;;;;;;;16.25;7.30;;;;;;;10.37;100.00;99764.63;4490184;78;28542;-78
2021/03/27 18:41:48;;;;;;;12.70;6.90;;;;;;;10.27;100.00;99761.02;4497903;78;28535;-79
2021/03/27 18:48:03;;;;;;;12.28;5.97;;;;;;;10.26;100.00;99750.81;4486273;78;28660;-81
2021/03/27 18:54:16;;;;;;;11.63;5.72;;;;;;;10.27;100.00;99769.09;4498059;78;28602;-80
2021/03/27 19:00:34;;;;;;;13.90;6.33;;;;;;;10.18;100.00;99771.19;4502758;78;28926;-79
2021/03/27 19:06:56;;;;;;;13.30;7.25;;;;;;;10.25;100.00;99784.60;4496619;78;28572;-77
2021/03/27 19:13:16;;;;;;;13.68;7.08;;;;;;;10.19;100.00;99788.95;4488062;78;28541;-79
2021/03/27 19:19:30;;;;;;;13.45;6.53;;;;;;;10.11;100.00;99792.70;4467689;78;28609;-78
2021/03/27 19:25:40;;;;;;;11.85;6.28;;;;;;;9.90;100.00;99794.59;4494386;78;28613;-80
2021/03/27 19:31:57;;;;;;;13.80;6.17;;;;;;;9.86;100.00;99801.92;4498006;78;28566;-79
2021/03/27 19:38:10;;;;;;;11.08;5.20;;;;;;;10.07;100.00;99810.79;4484856;79;85239;-79
2021/03/27 19:44:39;;;;;;;10.68;4.92;;;;;;;9.80;100.00;99814.83;4410117;80;28573;-81
2021/03/27 19:51:16;;;;;;;10.13;4.70;;;;;;;9.59;100.00;99817.52;4375589;80;28583;-79
2021/03/27 19:57:53;;;;;;;11.05;5.35;;;;;;;9.57;100.00;99835.66;4403049;80;28529;-78
2021/03/27 20:04:09;;;;;;;10.20;5.28;;;;;;;9.42;100.00;99835.03;4430404;80;28636;-85
2021/03/27 20:10:17;;;;;;;11.15;5.20;;;;;;;9.32;100.00;99851.52;4364871;80;28623;-83
2021/03/27 20:16:42;;;;;;;12.20;5.85;;;;;;;9.29;100.00;99852.77;4379218;80;28583;-83
2021/03/27 20:22:50;;;;;;;15.75;6.37;;;;;;;9.29;100.00;99849.25;4422123;80;28567;-83
2021/03/27 20:29:03;;;;;;;14.63;6.55;;;;;;;9.10;100.00;99858.90;4361475;80;28572;-83
2021/03/27 20:35:35;;;;;;;9.30;5.60;;;;;;;9.22;100.00;99873.91;4402425;80;28619;-83
2021/03/27 20:42:09;;;;;;;10.63;5.20;;;;;;;8.98;100.00;99869.37;4368849;80;28567;-83
2021/03/27 20:48:34;;;;;;;14.00;5.95;;;;;;;9.05;100.00;99876.41;4396197;80;28628;-82
2021/03/27 20:55:01;;;;;;;14.40;6.60;;;;;;;9.24;100.00;99894.13;4356177;81;28559;-83
2021/03/27 21:02:00;;;;;;;14.15;6.40;;;;;;;8.79;100.00;99929.41;4595388;75;86197;-85
2021/03/27 21:08:31;;;;;;;11.15;5.28;;;;;;;8.69;100.00;99931.11;4505664;78;28574;-83
2021/03/27 21:14:42;;;;;;;12.23;5.10;;;;;;;8.47;100.00;99929.80;4374672;80;28537;-84
2021/03/27 21:20:56;;;;;;;8.83;4.80;;;;;;;8.49;100.00;99917.03;4379581;80;28586;-84
2021/03/27 21:27:59;;;;;;;9.60;5.25;;;;;;;8.30;100.00;99907.84;4326255;80;28603;-84
2021/03/27 21:34:50;;;;;;;10.32;4.92;;;;;;;8.12;100.00;99894.90;4346111;80;28591;-85
2021/03/27 21:40:54;;;;;;;9.18;5.08;;;;;;;8.13;100.00;99900.59;4359496;80;28588;-82
2021/03/27 21:47:07;;;;;;;10.55;5.33;;;;;;;7.95;100.00;99910.41;4358870;80;28572;-85
2021/03/27 21:53:52;;;;;;;10.38;6.03;;;;;;;7.85;100.00;99905.40;4341790;80;28551;-84
2021/03/27 22:00:28;;;;;;;12.73;6.25;;;;;;;7.88;100.00;99920.26;4375194;80;28544;-83
2021/03/27 22:06:55;;;;;;;11.10;6.10;;;;;;;7.67;100.00;99932.62;4389594;79;28595;-83
2021/03/27 22:13:32;;;;;;;11.60;5.58;;;;;;;7.84;100.00;99952.43;4375261;80;28636;-83
2021/03/27 22:19:43;;;;;;;12.75;6.85;;;;;;;7.89;100.00;99976.80;4385331;80;28581;-83
2021/03/27 22:25:46;;;;;;;14.35;6.85;;;;;;;8.17;100.00;99976.02;4368085;80;29027;-81
2021/03/27 22:31:49;;;;;;;15.05;7.35;;;;;;;8.17;100.00;100006.83;4368420;80;28621;-82
2021/03/27 22:38:00;;;;;;;15.48;9.30;;;;;;;7.65;100.00;100021.62;4285822;81;28568;-83
2021/03/27 22:44:27;;;;;;;12.53;7.37;;;;;;;7.22;100.00;100029.02;4390949;80;28579;-84
2021/03/27 22:50:52;;;;;;;14.10;8.55;;;;;;;6.99;100.00;100039.29;4362511;80;28617;-83
2021/03/27 22:57:11;;;;;;;13.10;7.47;;;;;;;6.77;100.00;100044.52;4380147;79;28615;-82
2021/03/27 23:03:18;;;;;;;12.53;7.70;;;;;;;6.82;100.00;100047.45;4367263;80;28620;-84
2021/03/27 23:09:28;;;;;;;11.88;7.00;;;;;;;6.67;100.00;100054.10;4352422;81;28682;-81
2021/03/27 23:15:56;;;;;;;12.07;7.60;;;;;;;6.47;100.00;100046.26;4335194;81;28614;-81
2021/03/27 23:22:04;;;;;;;14.87;8.38;;;;;;;6.52;100.00;100051.91;4287874;81;28681;-82
2021/03/27 23:28:14;;;;;;;11.70;7.17;;;;;;;6.72;100.00;100041.53;4341062;80;28626;-82
2021/03/27 23:34:50;;;;;;;14.35;7.92;;;;;;;6.56;100.00;100041.17;4350532;80;28669;-81
2021/03/27 23:41:10;;;;;;;11.22;7.20;;;;;;;6.63;100.00;100056.83;4342947;80;28613;-80
2021/03/27 23:47:32;;;;;;;13.18;8.15;;;;;;;6.69;100.00;100066.77;4288735;81;28638;-81
2021/03/27 23:53:46;;;;;;;16.17;9.10;;;;;;;6.61;100.00;100065.53;4382254;80;28608;-83
